createdAt,value
2022-11-24T00:00:37.832Z,5.50
2022-11-24T00:01:39.340Z,8.17
2022-11-24T00:02:40.987Z,7.67
2022-11-24T00:03:46.806Z,7.37
2022-11-24T00:04:48.322Z,7.30
2022-11-24T00:05:49.859Z,7.90
2022-11-24T00:06:53.415Z,7.70
2022-11-24T00:07:54.984Z,7.43
2022-11-24T00:08:57.123Z,9.20
2022-11-24T00:09:58.648Z,6.73
2022-11-24T00:11:14.665Z,7.23
2022-11-24T00:12:16.179Z,7.40
2022-11-24T00:13:17.693Z,6.80
2022-11-24T00:14:19.915Z,7.07
2022-11-24T00:15:21.600Z,7.93
2022-11-24T00:16:26.443Z,7.87
2022-11-24T00:17:29.419Z,9.00
2022-11-24T00:18:31.295Z,8.80
2022-11-24T00:19:32.800Z,10.40
2022-11-24T00:20:34.388Z,11.27
2022-11-24T00:21:37.123Z,9.37
2022-11-24T00:22:38.724Z,11.67
2022-11-24T00:23:40.640Z,7.03
2022-11-24T00:24:42.132Z,9.13
2022-11-24T00:25:43.657Z,8.83
2022-11-24T00:26:45.232Z,9.93
2022-11-24T00:27:46.740Z,11.77
2022-11-24T00:28:50.171Z,12.40
2022-11-24T00:29:51.690Z,12.33
2022-11-24T00:30:53.247Z,9.00
2022-11-24T00:31:56.738Z,14.77
2022-11-24T00:32:58.262Z,8.47
2022-11-24T00:34:02.609Z,9.00
2022-11-24T00:35:04.500Z,7.90
2022-11-24T00:36:06.251Z,6.80
2022-11-24T00:37:07.818Z,9.83
2022-11-24T00:38:09.328Z,8.03
2022-11-24T00:39:15.774Z,6.37
2022-11-24T00:40:17.436Z,8.33
2022-11-24T00:41:18.945Z,8.87
2022-11-24T00:42:20.467Z,6.97
2022-11-24T00:43:22.028Z,10.37
2022-11-24T00:44:23.639Z,6.37
2022-11-24T00:45:25.170Z,8.37
2022-11-24T00:46:27.974Z,7.70
2022-11-24T00:47:32.821Z,7.17
2022-11-24T00:48:34.784Z,7.47
2022-11-24T00:49:36.384Z,12.10
2022-11-24T00:50:38.026Z,10.83
2022-11-24T00:51:39.759Z,9.00
2022-11-24T00:52:41.303Z,8.90
2022-11-24T00:53:43.600Z,11.50
2022-11-24T00:54:45.129Z,11.03
2022-11-24T00:55:50.066Z,11.47
2022-11-24T00:56:51.609Z,10.13
2022-11-24T00:57:53.145Z,8.57
2022-11-24T00:58:55.131Z,10.43
2022-11-24T00:59:56.635Z,5.63
2022-11-24T01:01:16.539Z,8.67
2022-11-24T01:02:18.183Z,8.03
2022-11-24T01:03:20.916Z,8.07
2022-11-24T01:04:22.420Z,8.57
2022-11-24T01:05:23.931Z,6.77
2022-11-24T01:06:26.333Z,8.47
2022-11-24T01:07:27.877Z,8.33
2022-11-24T01:08:29.489Z,8.77
2022-11-24T01:09:30.998Z,8.90
2022-11-24T01:10:33.394Z,8.67
2022-11-24T01:11:54.605Z,9.17
2022-11-24T01:12:56.171Z,8.47
2022-11-24T01:13:59.328Z,8.33
2022-11-24T01:15:00.877Z,7.97
2022-11-24T01:16:02.524Z,9.93
2022-11-24T01:17:04.363Z,7.80
2022-11-24T01:18:06.281Z,7.90
2022-11-24T01:19:07.932Z,11.90
2022-11-24T01:20:10.018Z,8.53
2022-11-24T01:21:11.874Z,6.17
2022-11-24T01:22:13.780Z,6.87
2022-11-24T01:23:15.282Z,7.50
2022-11-24T01:24:17.077Z,6.90
2022-11-24T01:25:18.610Z,7.10
2022-11-24T01:26:22.290Z,4.90
2022-11-24T01:27:23.836Z,8.57
2022-11-24T01:28:25.374Z,5.70
2022-11-24T01:29:26.968Z,8.07
2022-11-24T01:30:28.478Z,8.43
2022-11-24T01:31:30.175Z,5.87
2022-11-24T01:32:33.245Z,6.17
2022-11-24T01:33:35.586Z,4.53
2022-11-24T01:34:37.112Z,8.03
2022-11-24T01:35:38.660Z,5.67
2022-11-24T01:36:40.239Z,7.90
2022-11-24T01:37:41.757Z,4.93
2022-11-24T01:38:43.312Z,6.17
2022-11-24T01:39:44.883Z,14.67
2022-11-24T01:40:46.823Z,6.73
2022-11-24T01:41:48.343Z,5.37
2022-11-24T01:42:51.654Z,7.00
2022-11-24T01:43:55.171Z,5.73
2022-11-24T01:45:31.041Z,7.87
2022-11-24T01:46:43.704Z,6.20
2022-11-24T01:47:45.265Z,4.53
2022-11-24T01:49:08.640Z,6.07
2022-11-24T01:50:16.243Z,7.30
2022-11-24T01:51:23.136Z,6.53
2022-11-24T01:52:33.066Z,4.30
2022-11-24T01:53:35.507Z,3.90
2022-11-24T01:54:40.830Z,6.00
2022-11-24T01:55:42.506Z,7.73
2022-11-24T01:56:47.946Z,3.13
2022-11-24T01:58:07.523Z,5.53
2022-11-24T01:59:12.449Z,3.90
2022-11-24T02:00:14.860Z,5.07
2022-11-24T02:01:16.506Z,5.87
2022-11-24T02:02:19.439Z,4.17
2022-11-24T02:03:26.361Z,4.67
2022-11-24T02:04:33.230Z,5.13
2022-11-24T02:05:51.190Z,3.67
2022-11-24T02:06:55.040Z,7.50
2022-11-24T02:08:00.384Z,5.97
2022-11-24T02:09:13.470Z,3.40
2022-11-24T02:10:16.321Z,4.63
2022-11-24T02:11:21.085Z,6.83
2022-11-24T02:12:24.687Z,6.43
2022-11-24T02:13:26.443Z,6.97
2022-11-24T02:14:28.601Z,5.90
2022-11-24T02:15:30.857Z,7.70
2022-11-24T02:16:35.841Z,5.37
2022-11-24T02:17:37.787Z,7.97
2022-11-24T02:18:40.120Z,5.83
2022-11-24T02:19:47.495Z,5.40
2022-11-24T02:20:49.146Z,6.83
2022-11-24T02:21:50.920Z,5.27
2022-11-24T02:22:55.537Z,5.03
2022-11-24T02:24:26.587Z,4.57
2022-11-24T02:25:46.735Z,5.10
2022-11-24T02:26:49.732Z,5.17
2022-11-24T02:27:54.109Z,4.77
2022-11-24T02:28:56.352Z,6.20
2022-11-24T02:29:58.580Z,7.13
2022-11-24T02:31:01.803Z,5.70
2022-11-24T02:32:06.778Z,4.07
2022-11-24T02:33:09.965Z,5.50
2022-11-24T02:34:11.456Z,6.50
2022-11-24T02:35:13.449Z,4.87
2022-11-24T02:36:14.971Z,6.23
2022-11-24T02:37:16.541Z,8.90
2022-11-24T02:38:18.173Z,6.50
2022-11-24T02:39:19.907Z,4.47
2022-11-24T02:40:26.307Z,6.50
2022-11-24T02:41:29.150Z,5.77
2022-11-24T02:42:36.263Z,4.57
2022-11-24T02:43:49.700Z,6.47
2022-11-24T02:44:56.952Z,5.63
2022-11-24T02:45:58.547Z,4.80
2022-11-24T02:47:09.218Z,5.40
2022-11-24T02:48:10.748Z,6.23
2022-11-24T02:49:12.269Z,4.47
2022-11-24T02:50:13.760Z,3.30
2022-11-24T02:51:15.510Z,7.60
2022-11-24T02:52:17.027Z,7.47
2022-11-24T02:53:18.591Z,7.13
2022-11-24T02:54:20.100Z,5.23
2022-11-24T02:55:21.689Z,4.67
2022-11-24T02:56:23.208Z,3.93
2022-11-24T02:57:24.721Z,4.40
2022-11-24T02:58:26.294Z,5.90
2022-11-24T02:59:27.859Z,7.17
2022-11-24T03:00:29.418Z,5.33
2022-11-24T03:01:31.028Z,4.97
2022-11-24T03:02:32.650Z,6.77
2022-11-24T03:03:34.331Z,7.63
2022-11-24T03:04:36.259Z,5.27
2022-11-24T03:05:38.163Z,2.60
2022-11-24T03:06:39.771Z,4.57
2022-11-24T03:07:41.395Z,6.23
2022-11-24T03:08:42.988Z,5.47
2022-11-24T03:09:44.514Z,6.00
2022-11-24T03:10:46.293Z,5.00
2022-11-24T03:11:47.884Z,7.43
2022-11-24T03:12:49.391Z,7.93
2022-11-24T03:13:51.003Z,3.97
2022-11-24T03:14:52.524Z,7.60
2022-11-24T03:15:54.128Z,5.40
2022-11-24T03:16:55.695Z,8.40
2022-11-24T03:17:57.399Z,5.43
2022-11-24T03:18:59.276Z,6.07
2022-11-24T03:20:04.907Z,8.47
2022-11-24T03:21:07.225Z,4.87
2022-11-24T03:22:08.840Z,10.27
2022-11-24T03:23:10.779Z,8.13
2022-11-24T03:24:12.294Z,9.93
2022-11-24T03:25:13.914Z,5.33
2022-11-24T03:26:18.119Z,8.13
2022-11-24T03:27:19.792Z,7.23
2022-11-24T03:28:21.315Z,8.57
2022-11-24T03:29:23.038Z,7.93
2022-11-24T03:30:24.683Z,6.10
2022-11-24T03:31:26.238Z,6.87
2022-11-24T03:32:27.849Z,8.10
2022-11-24T03:33:29.568Z,8.87
2022-11-24T03:34:31.281Z,6.97
2022-11-24T03:35:32.998Z,8.83
2022-11-24T03:36:34.574Z,7.73
2022-11-24T03:37:36.124Z,8.53
2022-11-24T03:38:37.806Z,9.70
2022-11-24T03:39:39.370Z,6.97
2022-11-24T03:40:41.279Z,5.00
2022-11-24T03:41:42.864Z,6.97
2022-11-24T03:42:44.425Z,5.37
2022-11-24T03:43:45.974Z,7.87
2022-11-24T03:44:47.482Z,7.83
2022-11-24T03:45:50.111Z,7.10
2022-11-24T03:46:52.109Z,6.03
2022-11-24T03:47:53.637Z,8.17
2022-11-24T03:48:55.152Z,6.97
2022-11-24T03:49:56.643Z,6.63
2022-11-24T03:51:00.544Z,5.67
2022-11-24T03:52:07.656Z,6.03
2022-11-24T03:53:10.006Z,7.50
2022-11-24T03:54:11.873Z,6.83
2022-11-24T03:55:13.474Z,6.37
2022-11-24T03:56:15.106Z,6.33
2022-11-24T03:57:16.650Z,8.97
2022-11-24T03:58:19.413Z,5.93
2022-11-24T03:59:21.089Z,7.43
2022-11-24T04:00:22.838Z,8.57
2022-11-24T04:01:24.511Z,4.77
2022-11-24T04:02:26.064Z,5.47
2022-11-24T04:03:27.912Z,5.90
2022-11-24T04:04:29.445Z,6.57
2022-11-24T04:05:31.158Z,8.00
2022-11-24T04:06:32.689Z,5.90
2022-11-24T04:07:34.340Z,7.17
2022-11-24T04:08:36.490Z,7.00
2022-11-24T04:09:38.349Z,12.27
2022-11-24T04:10:40.350Z,10.47
2022-11-24T04:12:00.228Z,9.30
2022-11-24T04:13:01.862Z,7.27
2022-11-24T04:14:04.352Z,6.40
2022-11-24T04:15:07.805Z,6.83
2022-11-24T04:16:09.456Z,9.40
2022-11-24T04:17:11.218Z,7.60
2022-11-24T04:18:14.402Z,10.00
2022-11-24T04:19:16.533Z,5.73
2022-11-24T04:20:18.402Z,8.73
2022-11-24T04:21:21.875Z,7.90
2022-11-24T04:22:24.654Z,7.40
2022-11-24T04:23:28.257Z,5.87
2022-11-24T04:24:30.020Z,8.53
2022-11-24T04:25:32.306Z,8.53
2022-11-24T04:26:34.404Z,6.77
2022-11-24T04:27:37.319Z,8.13
2022-11-24T04:28:39.217Z,10.23
2022-11-24T04:29:40.967Z,9.73
2022-11-24T04:30:45.166Z,6.80
2022-11-24T04:31:47.782Z,8.37
2022-11-24T04:32:49.590Z,6.70
2022-11-24T04:33:51.105Z,8.17
2022-11-24T04:34:53.200Z,8.17
2022-11-24T04:35:54.723Z,5.70
2022-11-24T04:36:56.384Z,10.50
2022-11-24T04:38:01.784Z,9.37
2022-11-24T04:39:19.669Z,10.60
2022-11-24T04:40:24.937Z,9.47
2022-11-24T04:41:26.479Z,7.97
2022-11-24T04:42:28.113Z,5.10
2022-11-24T04:43:30.306Z,10.03
2022-11-24T04:44:32.326Z,5.77
2022-11-24T04:45:34.206Z,11.40
2022-11-24T04:46:35.850Z,7.40
2022-11-24T04:47:38.301Z,7.27
2022-11-24T04:48:39.860Z,11.17
2022-11-24T04:49:41.387Z,9.23
2022-11-24T04:50:42.968Z,13.47
2022-11-24T04:51:45.158Z,7.13
2022-11-24T04:52:47.326Z,7.13
2022-11-24T04:53:49.517Z,6.53
2022-11-24T04:54:51.376Z,9.80
2022-11-24T04:55:52.901Z,7.03
2022-11-24T04:56:54.583Z,6.63
2022-11-24T04:57:56.127Z,7.60
2022-11-24T04:58:57.640Z,6.33
2022-11-24T04:59:59.329Z,4.87
2022-11-24T05:01:00.898Z,6.47
2022-11-24T05:02:02.420Z,7.10
2022-11-24T05:03:04.974Z,7.93
2022-11-24T05:04:06.564Z,4.47
2022-11-24T05:05:08.535Z,8.20
2022-11-24T05:06:10.080Z,8.27
2022-11-24T05:07:17.979Z,5.70
2022-11-24T05:08:20.456Z,7.97
2022-11-24T05:09:22.027Z,8.67
2022-11-24T05:10:35.566Z,4.67
2022-11-24T05:11:37.119Z,5.97
2022-11-24T05:12:39.600Z,7.47
2022-11-24T05:13:41.205Z,11.43
2022-11-24T05:14:42.745Z,7.33
2022-11-24T05:15:44.372Z,7.10
2022-11-24T05:16:46.042Z,6.53
2022-11-24T05:17:47.661Z,8.73
2022-11-24T05:18:49.178Z,7.53
2022-11-24T05:19:50.703Z,10.23
2022-11-24T05:20:52.301Z,7.60
2022-11-24T05:21:54.373Z,10.63
2022-11-24T05:22:56.000Z,9.73
2022-11-24T05:23:57.970Z,7.47
2022-11-24T05:24:59.530Z,9.70
2022-11-24T05:26:01.936Z,9.90
2022-11-24T05:27:03.591Z,8.47
2022-11-24T05:28:09.890Z,13.67
2022-11-24T05:29:11.429Z,11.23
2022-11-24T05:30:13.516Z,14.63
2022-11-24T05:31:15.064Z,10.07
2022-11-24T05:32:16.660Z,8.77
2022-11-24T05:33:23.038Z,11.83
2022-11-24T05:34:24.752Z,10.30
2022-11-24T05:35:26.382Z,19.10
2022-11-24T05:36:46.365Z,18.33
2022-11-24T05:37:48.196Z,16.97
2022-11-24T05:38:49.694Z,16.83
2022-11-24T05:39:51.305Z,16.90
2022-11-24T05:40:52.829Z,16.63
2022-11-24T05:41:54.369Z,10.87
2022-11-24T05:42:55.978Z,13.40
2022-11-24T05:43:57.514Z,12.70
2022-11-24T05:44:59.767Z,9.93
2022-11-24T05:46:02.010Z,14.33
2022-11-24T05:47:03.728Z,9.40
2022-11-24T05:48:07.725Z,12.80
2022-11-24T05:49:09.313Z,9.83
2022-11-24T05:50:13.451Z,16.27
2022-11-24T05:51:15.010Z,13.07
2022-11-24T05:52:17.198Z,15.10
2022-11-24T05:53:18.818Z,12.47
2022-11-24T05:54:20.613Z,14.77
2022-11-24T05:55:22.214Z,12.60
2022-11-24T05:56:23.813Z,14.10
2022-11-24T05:57:25.366Z,14.47
2022-11-24T05:58:27.050Z,16.73
2022-11-24T05:59:28.637Z,15.43
2022-11-24T06:00:32.647Z,16.50
2022-11-24T06:01:34.760Z,12.00
2022-11-24T06:02:36.448Z,11.77
2022-11-24T06:03:38.126Z,11.17
2022-11-24T06:04:39.700Z,12.07
2022-11-24T06:05:46.814Z,14.13
2022-11-24T06:06:48.335Z,12.90
2022-11-24T06:07:50.930Z,11.10
2022-11-24T06:08:52.526Z,13.83
2022-11-24T06:09:54.093Z,12.13
2022-11-24T06:11:17.097Z,10.70
2022-11-24T06:12:19.013Z,15.07
2022-11-24T06:13:20.707Z,11.03
2022-11-24T06:14:22.495Z,12.30
2022-11-24T06:15:24.129Z,13.00
2022-11-24T06:16:26.158Z,17.27
2022-11-24T06:17:27.957Z,9.73
2022-11-24T06:18:29.710Z,18.57
2022-11-24T06:19:31.512Z,17.03
2022-11-24T06:20:33.278Z,13.47
2022-11-24T06:21:34.860Z,15.03
2022-11-24T06:22:37.119Z,15.60
2022-11-24T06:23:39.233Z,13.93
2022-11-24T06:24:40.823Z,12.17
2022-11-24T06:25:43.614Z,11.67
2022-11-24T06:26:47.831Z,10.13
2022-11-24T06:27:49.343Z,10.70
2022-11-24T06:28:50.871Z,10.33
2022-11-24T06:29:52.760Z,11.20
2022-11-24T06:30:54.497Z,17.00
2022-11-24T06:31:56.312Z,16.80
2022-11-24T06:32:57.930Z,15.97
2022-11-24T06:33:59.842Z,9.70
2022-11-24T06:35:01.555Z,14.93
2022-11-24T06:36:08.415Z,8.50
2022-11-24T06:37:10.272Z,9.83
2022-11-24T06:38:11.789Z,13.43
2022-11-24T06:39:13.329Z,22.47
2022-11-24T06:40:14.947Z,22.23
2022-11-24T06:41:18.118Z,21.07
2022-11-24T06:42:21.524Z,18.20
2022-11-24T06:43:23.357Z,17.23
2022-11-24T06:44:25.166Z,14.30
2022-11-24T06:45:26.802Z,12.87
2022-11-24T06:46:28.396Z,16.20
2022-11-24T06:47:29.980Z,19.37
2022-11-24T06:48:32.092Z,22.73
2022-11-24T06:49:33.643Z,15.47
2022-11-24T06:50:35.715Z,17.10
2022-11-24T06:51:37.450Z,19.90
2022-11-24T06:52:39.015Z,25.77
2022-11-24T06:53:41.245Z,19.23
2022-11-24T06:54:43.563Z,13.27
2022-11-24T06:55:46.872Z,13.23
2022-11-24T06:56:48.604Z,17.03
2022-11-24T06:57:50.140Z,17.37
2022-11-24T06:58:53.259Z,15.03
2022-11-24T06:59:54.838Z,24.90
2022-11-24T07:00:56.758Z,20.47
2022-11-24T07:01:58.996Z,24.73
2022-11-24T07:03:01.011Z,17.30
2022-11-24T07:04:02.700Z,23.70
2022-11-24T07:05:04.479Z,25.40
2022-11-24T07:06:06.173Z,19.40
2022-11-24T07:07:07.851Z,18.57
2022-11-24T07:08:14.600Z,16.00
2022-11-24T07:09:19.062Z,17.27
2022-11-24T07:10:21.079Z,15.07
2022-11-24T07:11:23.693Z,19.77
2022-11-24T07:12:25.215Z,20.83
2022-11-24T07:13:26.715Z,15.43
2022-11-24T07:14:28.228Z,14.20
2022-11-24T07:15:30.429Z,18.97
2022-11-24T07:16:32.285Z,14.97
2022-11-24T07:17:38.080Z,17.90
2022-11-24T07:18:39.703Z,18.37
2022-11-24T07:19:41.281Z,19.33
2022-11-24T07:20:43.333Z,17.07
2022-11-24T07:21:44.946Z,19.90
2022-11-24T07:22:46.559Z,23.47
2022-11-24T07:23:52.178Z,20.40
2022-11-24T07:24:53.668Z,18.97
2022-11-24T07:25:55.230Z,14.93
2022-11-24T07:26:56.770Z,21.57
2022-11-24T07:27:59.976Z,21.67
2022-11-24T07:29:01.496Z,16.27
2022-11-24T07:30:03.510Z,22.77
2022-11-24T07:31:10.303Z,18.33
2022-11-24T07:32:11.928Z,13.80
2022-11-24T07:33:13.531Z,12.33
2022-11-24T07:34:15.075Z,13.93
2022-11-24T07:35:16.592Z,10.37
2022-11-24T07:36:18.529Z,9.67
2022-11-24T07:37:20.085Z,13.27
2022-11-24T07:38:21.680Z,11.40
2022-11-24T07:39:23.244Z,11.20
2022-11-24T07:40:26.955Z,13.97
2022-11-24T07:41:28.655Z,13.53
2022-11-24T07:42:30.248Z,11.47
2022-11-24T07:43:33.243Z,14.37
2022-11-24T07:44:34.959Z,14.83
2022-11-24T07:45:36.757Z,13.07
2022-11-24T07:46:38.336Z,13.43
2022-11-24T07:47:40.679Z,17.27
2022-11-24T07:48:42.267Z,10.43
2022-11-24T07:49:43.818Z,9.30
2022-11-24T07:50:45.492Z,14.83
2022-11-24T07:51:47.085Z,13.77
2022-11-24T07:52:48.694Z,17.67
2022-11-24T07:53:50.524Z,9.00
2022-11-24T07:54:52.417Z,12.30
2022-11-24T07:55:55.696Z,10.63
2022-11-24T07:56:57.348Z,10.50
2022-11-24T07:58:00.659Z,9.67
2022-11-24T07:59:02.651Z,9.60
2022-11-24T08:00:05.916Z,7.67
2022-11-24T08:01:16.607Z,13.30
2022-11-24T08:02:18.426Z,10.73
2022-11-24T08:03:20.429Z,10.53
2022-11-24T08:04:22.166Z,14.13
2022-11-24T08:05:23.691Z,9.17
2022-11-24T08:06:29.051Z,8.43
2022-11-24T08:07:37.670Z,5.00
2022-11-24T08:08:39.299Z,6.33
2022-11-24T08:09:41.103Z,7.53
2022-11-24T08:10:42.654Z,10.73
2022-11-24T08:11:44.528Z,13.33
2022-11-24T08:12:46.090Z,7.80
2022-11-24T08:13:47.714Z,12.17
2022-11-24T08:14:50.495Z,5.37
2022-11-24T08:15:52.023Z,7.27
2022-11-24T08:16:53.611Z,9.03
2022-11-24T08:17:55.407Z,10.33
2022-11-24T08:18:57.009Z,8.97
2022-11-24T08:19:58.627Z,8.60
2022-11-24T08:21:00.241Z,7.00
2022-11-24T08:22:01.761Z,5.73
2022-11-24T08:23:03.512Z,8.90
2022-11-24T08:24:05.611Z,8.80
2022-11-24T08:25:07.774Z,7.33
2022-11-24T08:26:15.966Z,7.87
2022-11-24T08:27:18.883Z,6.17
2022-11-24T08:28:21.372Z,8.40
2022-11-24T08:29:22.953Z,8.83
2022-11-24T08:30:24.718Z,14.03
2022-11-24T08:31:33.428Z,10.40
2022-11-24T08:32:35.406Z,10.83
2022-11-24T08:33:37.294Z,10.53
2022-11-24T08:34:39.221Z,11.63
2022-11-24T08:35:40.781Z,9.70
2022-11-24T08:36:42.304Z,12.30
2022-11-24T08:37:44.078Z,12.07
2022-11-24T08:38:46.349Z,8.47
2022-11-24T08:39:47.974Z,8.63
2022-11-24T08:40:49.492Z,13.00
2022-11-24T08:41:51.131Z,11.43
2022-11-24T08:42:56.853Z,9.37
2022-11-24T08:43:58.558Z,8.90
2022-11-24T08:45:04.942Z,10.97
2022-11-24T08:46:20.195Z,8.70
2022-11-24T08:47:21.817Z,6.50
2022-11-24T08:48:23.412Z,11.80
2022-11-24T08:49:25.010Z,9.30
2022-11-24T08:50:26.654Z,9.83
2022-11-24T08:51:28.818Z,7.67
2022-11-24T08:52:30.591Z,12.43
2022-11-24T08:53:32.097Z,9.30
2022-11-24T08:54:33.980Z,7.50
2022-11-24T08:55:35.686Z,10.67
2022-11-24T08:56:37.385Z,12.13
2022-11-24T08:57:38.984Z,7.00
2022-11-24T08:58:41.250Z,13.63
2022-11-24T08:59:42.826Z,12.10
2022-11-24T09:00:44.373Z,8.53
2022-11-24T09:01:45.995Z,10.50
2022-11-24T09:02:53.990Z,11.30
2022-11-24T09:03:55.801Z,18.23
2022-11-24T09:04:57.432Z,7.13
2022-11-24T09:05:59.019Z,7.13
2022-11-24T09:07:00.753Z,9.53
2022-11-24T09:08:02.415Z,9.47
2022-11-24T09:09:04.131Z,10.03
2022-11-24T09:10:06.331Z,8.10
2022-11-24T09:11:10.709Z,9.90
2022-11-24T09:12:14.618Z,13.20
2022-11-24T09:13:16.501Z,11.97
2022-11-24T09:14:18.050Z,10.73
2022-11-24T09:15:20.376Z,11.20
2022-11-24T09:16:26.049Z,14.17
2022-11-24T09:17:27.683Z,13.60
2022-11-24T09:18:30.553Z,13.93
2022-11-24T09:19:32.645Z,11.00
2022-11-24T09:20:34.394Z,10.13
2022-11-24T09:21:39.253Z,9.63
2022-11-24T09:22:41.743Z,10.33
2022-11-24T09:23:44.026Z,10.80
2022-11-24T09:24:45.507Z,14.43
2022-11-24T09:25:47.053Z,10.73
2022-11-24T09:26:48.582Z,9.63
2022-11-24T09:27:51.156Z,8.77
2022-11-24T09:28:54.706Z,9.10
2022-11-24T09:29:56.318Z,8.27
2022-11-24T09:31:01.381Z,9.53
2022-11-24T09:32:06.727Z,8.23
2022-11-24T09:33:08.799Z,8.00
2022-11-24T09:34:14.823Z,7.67
2022-11-24T09:35:16.453Z,7.93
2022-11-24T09:36:18.644Z,8.87
2022-11-24T09:37:20.230Z,12.10
2022-11-24T09:38:22.872Z,14.47
2022-11-24T09:39:25.634Z,8.87
2022-11-24T09:40:27.215Z,9.87
2022-11-24T09:41:49.394Z,10.10
2022-11-24T09:42:53.924Z,11.63
2022-11-24T09:44:08.668Z,8.60
2022-11-24T09:45:57.057Z,11.57
2022-11-24T09:47:06.413Z,15.57
2022-11-24T09:48:30.958Z,10.30
2022-11-24T09:50:05.281Z,8.70
2022-11-24T09:51:11.644Z,8.77
2022-11-24T09:52:18.560Z,13.70
2022-11-24T09:53:39.345Z,11.97
2022-11-24T09:54:54.663Z,11.23
2022-11-24T09:56:00.542Z,9.27
2022-11-24T09:57:07.244Z,9.97
2022-11-24T09:58:24.344Z,12.23
2022-11-24T09:59:27.500Z,7.23
2022-11-24T10:00:30.182Z,8.60
2022-11-24T10:01:41.577Z,8.10
2022-11-24T10:02:46.116Z,12.27
2022-11-24T10:03:51.004Z,8.97
2022-11-24T10:04:54.809Z,6.30
2022-11-24T10:05:56.428Z,12.47
2022-11-24T10:07:16.692Z,7.43
2022-11-24T10:08:54.182Z,7.57
2022-11-24T10:10:07.906Z,7.80
2022-11-24T10:11:14.809Z,9.70
2022-11-24T10:12:34.393Z,7.60
2022-11-24T10:13:54.583Z,8.57
2022-11-24T10:15:14.899Z,9.40
2022-11-24T10:16:41.304Z,11.60
2022-11-24T10:17:49.712Z,11.37
2022-11-24T10:19:03.380Z,13.50
2022-11-24T10:20:33.575Z,14.47
2022-11-24T10:21:52.848Z,13.63
2022-11-24T10:23:19.737Z,8.37
2022-11-24T10:24:51.802Z,9.70
2022-11-24T10:25:58.181Z,14.80
2022-11-24T10:27:11.535Z,13.20
2022-11-24T10:28:15.083Z,14.73
2022-11-24T10:29:38.203Z,11.27
2022-11-24T10:30:40.236Z,16.33
2022-11-24T10:31:44.642Z,13.13
2022-11-24T10:32:49.279Z,14.27
2022-11-24T10:33:51.274Z,8.93
2022-11-24T10:34:55.881Z,8.57
2022-11-24T10:36:13.485Z,6.47
2022-11-24T10:37:23.750Z,9.07
2022-11-24T10:38:51.515Z,10.03
2022-11-24T10:40:17.181Z,8.53
2022-11-24T10:42:07.101Z,7.67
2022-11-24T10:43:11.292Z,9.93
2022-11-24T10:44:14.309Z,9.50
2022-11-24T10:45:19.423Z,5.60
2022-11-24T10:46:27.971Z,9.20
2022-11-24T10:47:30.737Z,9.23
2022-11-24T10:48:41.081Z,7.60
2022-11-24T10:49:57.919Z,9.87
2022-11-24T10:51:17.687Z,10.60
2022-11-24T10:52:20.012Z,7.00
2022-11-24T10:53:30.246Z,9.57
2022-11-24T10:54:33.123Z,9.83
2022-11-24T10:55:56.246Z,12.97
2022-11-24T10:56:57.944Z,8.43
2022-11-24T10:58:15.433Z,7.80
2022-11-24T10:59:37.554Z,9.80
2022-11-24T11:00:39.599Z,9.63
2022-11-24T11:01:41.187Z,9.60
2022-11-24T11:02:42.834Z,14.60
2022-11-24T11:03:49.982Z,15.90
2022-11-24T11:04:51.725Z,18.53
2022-11-24T11:06:13.135Z,14.50
2022-11-24T11:07:18.671Z,19.63
2022-11-24T11:08:22.588Z,15.33
2022-11-24T11:09:24.270Z,19.03
2022-11-24T11:10:25.789Z,18.70
2022-11-24T11:11:29.189Z,17.60
2022-11-24T11:12:46.156Z,15.50
2022-11-24T11:13:52.249Z,13.97
2022-11-24T11:14:54.051Z,18.43
2022-11-24T11:15:57.264Z,15.03
2022-11-24T11:16:59.586Z,13.70
2022-11-24T11:18:01.688Z,15.97
2022-11-24T11:19:20.202Z,16.87
2022-11-24T11:20:34.152Z,12.60
2022-11-24T11:21:37.956Z,16.83
2022-11-24T11:22:45.285Z,14.67
2022-11-24T11:23:51.748Z,10.03
2022-11-24T11:25:10.112Z,10.53
2022-11-24T11:26:22.551Z,8.83
2022-11-24T11:27:25.290Z,13.70
2022-11-24T11:28:29.155Z,7.13
2022-11-24T11:31:18.018Z,8.73
2022-11-24T11:34:16.682Z,9.27
2022-11-24T11:35:17.020Z,12.50
2022-11-24T11:36:18.588Z,13.10
2022-11-24T11:37:21.704Z,9.47
2022-11-24T11:38:26.358Z,10.37
2022-11-24T11:39:36.939Z,12.03
2022-11-24T11:40:42.768Z,11.00
2022-11-24T11:41:49.558Z,7.90
2022-11-24T11:43:02.860Z,10.23
2022-11-24T11:44:17.649Z,9.60
2022-11-24T11:45:32.113Z,13.20
2022-11-24T11:46:33.898Z,9.50
2022-11-24T11:47:44.315Z,9.67
2022-11-24T11:48:47.458Z,8.07
2022-11-24T11:49:49.660Z,10.70
2022-11-24T11:51:22.230Z,9.30
2022-11-24T11:52:51.160Z,6.90
2022-11-24T11:53:55.785Z,8.03
2022-11-24T11:55:46.599Z,8.70
2022-11-24T11:57:06.470Z,5.77
2022-11-24T11:58:18.547Z,8.33
2022-11-24T12:00:01.974Z,6.87
2022-11-24T12:01:24.365Z,4.83
2022-11-24T12:02:53.685Z,8.57
2022-11-24T12:04:16.353Z,6.20
2022-11-24T12:05:38.857Z,5.80
2022-11-24T12:06:49.428Z,5.83
2022-11-24T12:08:22.649Z,4.73
2022-11-24T12:09:53.448Z,6.17
2022-11-24T12:11:28.965Z,4.53
2022-11-24T12:12:42.389Z,4.50
2022-11-24T12:14:02.657Z,4.17
2022-11-24T12:15:22.055Z,3.40
2022-11-24T12:16:48.062Z,3.63
2022-11-24T12:17:52.900Z,3.30
2022-11-24T12:19:02.938Z,3.03
2022-11-24T12:20:42.217Z,3.13
2022-11-24T12:21:48.290Z,4.23
2022-11-24T12:23:17.705Z,3.17
2022-11-24T12:24:40.515Z,2.53
2022-11-24T12:25:47.915Z,2.23
2022-11-24T12:26:57.209Z,2.13
2022-11-24T12:28:37.958Z,3.00
2022-11-24T12:29:42.044Z,7.63
2022-11-24T12:31:12.411Z,5.77
2022-11-24T12:32:55.515Z,8.13
2022-11-24T12:34:31.068Z,6.73
2022-11-24T12:35:39.207Z,8.73
2022-11-24T12:36:49.441Z,4.17
2022-11-24T12:38:08.828Z,2.87
2022-11-24T12:39:28.803Z,1.70
2022-11-24T12:41:06.468Z,1.97
2022-11-24T12:42:53.617Z,1.83
2022-11-24T12:43:58.292Z,2.17
2022-11-24T12:45:13.241Z,4.93
2022-11-24T12:46:56.727Z,4.00
2022-11-24T12:48:35.712Z,5.00
2022-11-24T12:49:56.310Z,5.30
2022-11-24T12:50:59.144Z,7.37
2022-11-24T12:52:09.016Z,8.50
2022-11-24T12:53:24.358Z,6.40
2022-11-24T12:54:30.091Z,3.70
2022-11-24T12:55:34.053Z,7.97
2022-11-24T12:56:57.975Z,4.40
2022-11-24T12:58:11.086Z,3.00
2022-11-24T12:59:21.030Z,4.27
2022-11-24T13:00:29.526Z,6.83
2022-11-24T13:01:35.892Z,5.40
2022-11-24T13:03:00.622Z,6.40
2022-11-24T13:04:11.052Z,5.30
2022-11-24T13:05:30.270Z,5.07
2022-11-24T13:06:49.341Z,4.43
2022-11-24T13:08:01.109Z,2.77
2022-11-24T13:09:10.734Z,3.23
2022-11-24T13:10:46.488Z,2.73
2022-11-24T13:11:48.978Z,3.23
2022-11-24T13:12:57.555Z,1.70
2022-11-24T13:14:00.438Z,1.80
2022-11-24T13:15:43.314Z,2.03
2022-11-24T13:17:13.378Z,4.50
2022-11-24T13:18:46.961Z,3.17
2022-11-24T13:19:49.718Z,3.13
2022-11-24T13:20:51.630Z,3.13
2022-11-24T13:22:01.930Z,3.93
2022-11-24T13:23:08.493Z,4.77
2022-11-24T13:24:19.332Z,46.30
2022-11-24T13:25:28.748Z,6.13
2022-11-24T13:26:52.282Z,3.13
2022-11-24T13:27:57.613Z,4.33
2022-11-24T13:29:09.350Z,12.10
2022-11-24T13:30:34.966Z,8.10
2022-11-24T13:31:36.611Z,53.70
2022-11-24T13:32:38.180Z,16.73
2022-11-24T13:33:40.207Z,27.23
2022-11-24T13:34:45.919Z,2.33
2022-11-24T13:36:03.170Z,7.10
2022-11-24T13:37:26.716Z,8.47
2022-11-24T13:38:45.348Z,14.13
2022-11-24T13:39:58.353Z,10.77
2022-11-24T13:41:27.031Z,5.77
2022-11-24T13:42:42.157Z,4.00
2022-11-24T13:44:13.498Z,3.53
2022-11-24T13:45:37.127Z,4.50
2022-11-24T13:47:05.688Z,4.97
2022-11-24T13:48:20.334Z,8.10
2022-11-24T13:49:22.272Z,2.73
2022-11-24T13:50:45.387Z,4.13
2022-11-24T13:51:46.918Z,3.70
2022-11-24T13:52:58.002Z,2.17
2022-11-24T13:54:00.960Z,3.00
2022-11-24T13:55:21.497Z,2.63
2022-11-24T13:56:26.472Z,3.70
2022-11-24T13:57:57.369Z,2.90
2022-11-24T13:59:03.118Z,2.53
2022-11-24T14:00:18.308Z,3.73
2022-11-24T14:01:24.262Z,3.53
2022-11-24T14:02:26.651Z,3.03
2022-11-24T14:03:33.904Z,2.80
2022-11-24T14:04:39.466Z,2.80
2022-11-24T14:05:49.009Z,2.93
2022-11-24T14:06:53.328Z,3.30
2022-11-24T14:07:55.060Z,4.70
2022-11-24T14:08:59.660Z,3.60
2022-11-24T14:10:02.047Z,2.50
2022-11-24T14:11:13.310Z,3.10
2022-11-24T14:12:19.044Z,3.03
2022-11-24T14:13:26.163Z,3.13
2022-11-24T14:14:27.967Z,2.93
2022-11-24T14:15:34.195Z,2.60
2022-11-24T14:16:35.831Z,3.70
2022-11-24T14:17:37.747Z,3.13
2022-11-24T14:18:41.728Z,2.80
2022-11-24T14:19:46.002Z,3.47
2022-11-24T14:20:47.644Z,3.37
2022-11-24T14:21:49.616Z,4.07
2022-11-24T14:22:51.965Z,3.67
2022-11-24T14:23:59.818Z,3.67
2022-11-24T14:25:02.770Z,3.23
2022-11-24T14:26:04.418Z,4.33
2022-11-24T14:27:05.989Z,3.23
2022-11-24T14:28:20.847Z,3.50
2022-11-24T14:29:24.087Z,4.90
2022-11-24T14:30:26.930Z,2.83
2022-11-24T14:31:28.516Z,3.40
2022-11-24T14:32:30.193Z,3.53